createdAt,value
2017-05-19T00:02:03.941Z,48.8
2017-05-19T00:07:03.639Z,48.8
2017-05-19T00:12:03.288Z,48.8
2017-05-19T00:17:03.709Z,48.8
2017-05-19T00:22:03.164Z,48.8
2017-05-19T00:27:03.398Z,48.9
2017-05-19T00:32:03.744Z,48.9
2017-05-19T00:37:03.272Z,49.0
2017-05-19T00:42:03.715Z,49.0
2017-05-19T00:47:03.944Z,48.9
2017-05-19T00:52:03.607Z,48.6
2017-05-19T00:57:03.240Z,48.8
2017-05-19T01:02:09.893Z,48.8
2017-05-19T01:07:03.572Z,48.6
2017-05-19T01:12:03.070Z,48.6
2017-05-19T01:17:03.867Z,48.6
2017-05-19T01:22:03.702Z,48.5
2017-05-19T01:27:03.962Z,48.5
2017-05-19T01:32:03.669Z,48.6
2017-05-19T01:37:03.586Z,48.6
2017-05-19T01:42:03.756Z,48.6
2017-05-19T01:47:03.508Z,48.7
2017-05-19T01:52:03.056Z,48.7
2017-05-19T01:57:03.724Z,48.7
2017-05-19T02:02:03.360Z,49.0
2017-05-19T02:07:03.797Z,48.9
2017-05-19T02:12:03.557Z,49.1
2017-05-19T02:17:03.389Z,49.2
2017-05-19T02:22:03.300Z,49.1
2017-05-19T02:27:03.823Z,49.1
2017-05-19T02:32:03.517Z,49.1
2017-05-19T02:37:03.224Z,49.1
2017-05-19T02:42:03.433Z,49.1
2017-05-19T02:47:03.982Z,49.1
2017-05-19T02:52:03.482Z,48.9
2017-05-19T02:57:03.704Z,49.1
2017-05-19T03:02:03.629Z,49.7
2017-05-19T03:07:03.219Z,49.0
2017-05-19T03:12:03.280Z,49.0
2017-05-19T03:17:22.559Z,48.9
2017-05-19T03:22:03.204Z,49.0
2017-05-19T03:27:03.673Z,49.0
2017-05-19T03:32:28.340Z,49.0
2017-05-19T03:37:03.698Z,48.9
2017-05-19T03:42:03.621Z,49.0
2017-05-19T03:47:25.643Z,49.0
2017-05-19T03:52:03.350Z,49.0
2017-05-19T03:57:05.576Z,49.2
2017-05-19T04:02:23.696Z,49.2
2017-05-19T04:07:03.264Z,49.3
2017-05-19T04:12:03.905Z,49.2
2017-05-19T04:17:29.144Z,49.1
2017-05-19T04:22:03.953Z,49.2
2017-05-19T04:27:03.509Z,49.3
2017-05-19T04:32:25.109Z,49.3
2017-05-19T04:37:03.659Z,49.5
2017-05-19T04:42:03.369Z,49.5
2017-05-19T04:47:24.243Z,49.3
2017-05-19T04:52:03.158Z,49.2
2017-05-19T04:57:03.456Z,49.2
2017-05-19T05:02:23.989Z,49.0
2017-05-19T05:07:03.908Z,49.1
2017-05-19T05:12:03.830Z,49.1
2017-05-19T05:17:28.004Z,49.2
2017-05-19T05:22:03.788Z,49.2
2017-05-19T05:27:03.145Z,49.0
2017-05-19T05:32:23.470Z,48.9
2017-05-19T05:37:03.372Z,49.0
2017-05-19T05:42:03.486Z,49.0
2017-05-19T05:47:24.335Z,49.1
2017-05-19T05:52:03.841Z,48.8
2017-05-19T05:57:03.238Z,48.8
2017-05-19T06:02:23.821Z,49.4
2017-05-19T06:07:03.125Z,48.8
2017-05-19T06:12:03.753Z,48.8
2017-05-19T06:17:24.738Z,48.7
2017-05-19T06:22:03.187Z,48.9
2017-05-19T06:27:03.298Z,49.0
2017-05-19T06:32:24.213Z,49.2
2017-05-19T06:37:03.639Z,49.2
2017-05-19T06:42:03.479Z,49.3
2017-05-19T06:47:28.963Z,49.6
2017-05-19T06:52:03.564Z,49.6
2017-05-19T06:57:03.039Z,50.0
2017-05-19T07:02:23.597Z,50.2
2017-05-19T07:07:03.949Z,50.2
2017-05-19T07:12:03.800Z,50.3
2017-05-19T07:17:24.720Z,50.3
2017-05-19T07:22:03.624Z,50.7
2017-05-19T07:27:03.853Z,51.8
2017-05-19T07:32:23.768Z,51.8
2017-05-19T07:37:04.128Z,52.0
2017-05-19T07:42:03.914Z,54.1
2017-05-19T07:47:24.531Z,64.5
2017-05-19T07:52:04.085Z,65.9
2017-05-19T07:57:03.794Z,65.9
2017-05-19T08:02:23.388Z,65.7
2017-05-19T08:07:03.254Z,65.7
2017-05-19T08:12:03.290Z,66.3
2017-05-19T08:17:28.437Z,67.0
2017-05-19T08:22:03.043Z,67.5
2017-05-19T08:27:03.583Z,67.3
2017-05-19T08:32:24.009Z,67.8
2017-05-19T08:37:03.235Z,67.7
2017-05-19T08:42:03.373Z,66.6
2017-05-19T08:47:24.230Z,67.1
2017-05-19T08:52:03.270Z,67.0
2017-05-19T08:57:03.168Z,67.1
2017-05-19T09:02:24.091Z,66.5
2017-05-19T09:07:03.775Z,66.8
2017-05-19T09:12:03.455Z,66.5
2017-05-19T09:17:23.742Z,66.0
2017-05-19T09:22:03.369Z,65.8
2017-05-19T09:27:03.736Z,65.9
2017-05-19T09:32:27.602Z,66.1
2017-05-19T09:37:03.591Z,65.9
2017-05-19T09:42:03.230Z,65.5
2017-05-19T09:47:28.534Z,65.5
2017-05-19T09:52:03.446Z,66.2
2017-05-19T09:57:03.943Z,66.0
2017-05-19T10:02:25.846Z,66.4
2017-05-19T10:07:03.301Z,66.4
2017-05-19T10:12:03.716Z,65.6
2017-05-19T10:17:28.719Z,64.6
2017-05-19T10:22:03.297Z,64.6
2017-05-19T10:27:03.846Z,63.7
2017-05-19T10:32:27.795Z,63.3
2017-05-19T10:37:03.652Z,63.4
2017-05-19T10:42:03.804Z,62.3
2017-05-19T10:47:24.550Z,60.1
2017-05-19T10:52:03.260Z,59.0
2017-05-19T10:57:03.284Z,59.0
2017-05-19T11:02:25.209Z,57.9
2017-05-19T11:07:03.469Z,56.8
2017-05-19T11:12:03.152Z,56.8
2017-05-19T11:17:25.178Z,56.7
2017-05-19T11:22:03.519Z,56.6
2017-05-19T11:27:03.728Z,56.1
2017-05-19T11:32:25.057Z,56.2
2017-05-19T11:37:03.884Z,56.0
2017-05-19T11:42:03.029Z,55.7
2017-05-19T11:47:28.502Z,55.7
2017-05-19T11:52:03.364Z,55.7
2017-05-19T11:57:03.475Z,55.1
2017-05-19T12:02:27.637Z,55.0
2017-05-19T12:07:03.272Z,54.5
2017-05-19T12:12:03.433Z,53.8
2017-05-19T12:17:28.432Z,53.7
2017-05-19T12:22:03.687Z,53.8
2017-05-19T12:27:03.343Z,53.9
2017-05-19T12:32:27.888Z,53.1
2017-05-19T12:37:03.825Z,52.7
2017-05-19T12:42:03.872Z,52.1
2017-05-19T12:47:24.325Z,52.1
2017-05-19T12:52:03.880Z,51.7
2017-05-19T12:57:03.235Z,51.4
2017-05-19T13:02:25.653Z,51.4
2017-05-19T13:07:03.484Z,51.0
2017-05-19T13:12:03.866Z,50.7
2017-05-19T13:17:29.115Z,50.7
2017-05-19T13:22:03.725Z,50.1
2017-05-19T13:27:03.875Z,50.2
2017-05-19T13:32:29.251Z,50.1
2017-05-19T13:37:03.203Z,50.1
2017-05-19T13:42:03.237Z,50.4
2017-05-19T13:47:22.214Z,49.8
2017-05-19T13:52:03.535Z,49.2
2017-05-19T13:57:03.483Z,49.2
2017-05-19T14:02:28.209Z,49.4
2017-05-19T14:07:03.920Z,49.8
2017-05-19T14:12:03.310Z,49.8
2017-05-19T14:17:28.659Z,49.8
2017-05-19T14:22:03.949Z,49.8
2017-05-19T14:27:03.102Z,49.6
2017-05-19T14:32:27.617Z,49.8
2017-05-19T14:37:03.212Z,49.7
2017-05-19T14:42:03.921Z,49.6
2017-05-19T14:47:28.296Z,49.6
2017-05-19T14:52:02.978Z,49.6
2017-05-19T14:57:03.181Z,49.6
2017-05-19T15:02:23.471Z,49.6
2017-05-19T15:07:03.337Z,49.7
2017-05-19T15:12:03.666Z,49.6
2017-05-19T15:17:25.436Z,49.6
2017-05-19T15:22:03.717Z,49.6
2017-05-19T15:27:03.495Z,49.9
2017-05-19T15:32:27.805Z,49.7
2017-05-19T15:37:03.319Z,49.7
2017-05-19T15:42:03.525Z,49.6
2017-05-19T15:47:28.404Z,49.6
2017-05-19T15:52:03.138Z,49.4
2017-05-19T15:57:03.405Z,49.4
2017-05-19T16:02:27.853Z,49.4
2017-05-19T16:07:03.489Z,49.4
2017-05-19T16:12:03.587Z,49.8
2017-05-19T16:17:28.484Z,49.7
2017-05-19T16:22:03.824Z,50.1
2017-05-19T16:27:03.435Z,50.1
2017-05-19T16:32:27.637Z,49.8
2017-05-19T16:37:03.966Z,49.7
2017-05-19T16:42:03.711Z,49.7
2017-05-19T16:47:25.124Z,49.0
2017-05-19T16:52:03.014Z,48.6
2017-05-19T16:57:03.630Z,48.6
2017-05-19T17:02:27.626Z,46.7
2017-05-19T17:07:03.820Z,46.2
2017-05-19T17:12:03.817Z,43.9
2017-05-19T17:17:28.361Z,43.8
2017-05-19T17:22:03.136Z,41.2
2017-05-19T17:27:03.726Z,43.9
2017-05-19T17:32:27.774Z,45.6
2017-05-19T17:37:03.794Z,47.4
2017-05-19T17:42:03.370Z,48.6
2017-05-19T17:47:22.501Z,48.7
2017-05-19T17:52:03.248Z,48.2
2017-05-19T17:57:03.448Z,48.2
2017-05-19T18:02:21.220Z,48.3
2017-05-19T18:07:03.494Z,48.2
2017-05-19T18:12:03.287Z,48.1
2017-05-19T18:17:24.211Z,47.9
2017-05-19T18:22:03.478Z,48.1
2017-05-19T18:27:03.921Z,48.0
2017-05-19T18:32:27.457Z,48.3
2017-05-19T18:37:03.170Z,48.2
2017-05-19T18:42:03.715Z,48.6
2017-05-19T18:47:27.924Z,48.8
2017-05-19T18:52:03.031Z,48.9
2017-05-19T18:57:03.564Z,48.8
2017-05-19T19:02:26.431Z,49.0
2017-05-19T19:07:03.569Z,49.0
2017-05-19T19:12:03.618Z,49.1
2017-05-19T19:22:03.345Z,49.0
2017-05-19T19:27:03.934Z,49.1
2017-05-19T19:32:27.969Z,49.1
2017-05-19T19:37:03.336Z,49.1
2017-05-19T19:42:03.734Z,48.9
2017-05-19T19:47:07.365Z,48.9
2017-05-19T19:52:03.799Z,48.9
2017-05-19T19:57:03.220Z,49.1
2017-05-19T20:02:07.221Z,49.1
2017-05-19T20:07:03.313Z,49.1
2017-05-19T20:12:03.984Z,48.9
2017-05-19T20:17:03.401Z,48.9
2017-05-19T20:22:03.927Z,49.0
2017-05-19T20:27:03.428Z,48.9
2017-05-19T20:32:03.841Z,49.0
2017-05-19T20:37:03.370Z,48.9
2017-05-19T20:42:03.668Z,48.9
2017-05-19T20:47:03.336Z,48.8
2017-05-19T20:52:03.636Z,48.9
2017-05-19T20:57:03.159Z,48.9
2017-05-19T21:02:03.674Z,48.8
2017-05-19T21:07:03.179Z,48.9
2017-05-19T21:12:03.829Z,48.9
2017-05-19T21:17:03.475Z,48.8
2017-05-19T21:22:03.758Z,49.0
2017-05-19T21:27:03.301Z,49.1
2017-05-19T21:32:03.619Z,48.9
2017-05-19T21:37:03.097Z,49.0
2017-05-19T21:42:03.438Z,49.1
2017-05-19T21:47:03.896Z,49.1
2017-05-19T21:52:03.394Z,49.1
2017-05-19T21:57:03.711Z,49.2
2017-05-19T22:02:03.244Z,49.1
2017-05-19T22:07:03.450Z,48.4
2017-05-19T22:12:03.720Z,49.0
2017-05-19T22:22:04.034Z,49.5
2017-05-19T22:27:03.774Z,49.1
2017-05-19T22:32:03.390Z,49.3
2017-05-19T22:37:03.654Z,49.2
2017-05-19T22:42:03.201Z,49.1
2017-05-19T22:47:03.690Z,49.1
2017-05-19T22:52:03.218Z,49.1
2017-05-19T22:57:03.775Z,49.0
2017-05-19T23:02:03.457Z,48.9
2017-05-19T23:07:03.990Z,48.9
2017-05-19T23:12:03.047Z,49.0
2017-05-19T23:17:04.141Z,48.9
2017-05-19T23:22:03.625Z,48.9
2017-05-19T23:27:03.421Z,48.9
2017-05-19T23:32:03.303Z,48.9
2017-05-19T23:37:03.573Z,48.8
2017-05-19T23:42:03.282Z,49.0
2017-05-19T23:47:03.221Z,48.5
2017-05-19T23:52:03.417Z,48.5
2017-05-19T23:57:03.219Z,48.5
